Terminal Aerodrome Forecast
Issued by NWS Grand Rapids, MI

Home | Current Version | Previous Version | Text Only | Print | Product List | Glossary On
Versions: 1 2 3 4 5 6 7 8 9 10 11 12 13 14 15 16 17 18 19 20 21 22 23 24 25 26 27 28 29 30 31 32 33 34 35
000
FTUS43 KGRR 160647 AAA
TAFGRR
TAF AMD
KGRR 160647Z 1607/1706 07005KT 3/4SM -SN BR OVC009
     FM161200 08003KT 4SM -SN OVC015
     FM161400 11006KT 4SM BR OVC015=

USA.gov is the U.S. government's official web portal to all federal, state and local government web resources and services.